Time;durP1;ratioP1;P1;durP2;ratioP2;P2;SDS_P1;SDS_P2;PMS_P1;PMS_P2;Temp;Humidity;BMP_temperature;BMP_pressure;BME280_temperature;BME280_humidity;BME280_pressure;Samples;Min_cycle;Max_cycle;Signal;HPM_P1;HPM_P2
2023/01/13 00:02:26;;;;;;;1.17;0.90;;;9.00;99.90;;;;;;5074212;28;20208;-70
2023/01/13 00:04:53;;;;;;;1.30;0.93;;;9.00;99.90;;;;;;5073724;28;20291;-69
2023/01/13 00:07:19;;;;;;;1.65;1.00;;;9.00;99.90;;;;;;5073744;28;20231;-70
2023/01/13 00:09:46;;;;;;;1.27;0.90;;;9.00;99.90;;;;;;5072934;28;20730;-70
2023/01/13 00:12:14;;;;;;;2.38;1.10;;;9.00;99.90;;;;;;5073811;28;20559;-68
2023/01/13 00:14:41;;;;;;;1.83;0.95;;;9.00;99.90;;;;;;5073546;28;20207;-70
2023/01/13 00:17:07;;;;;;;1.65;0.90;;;9.00;99.90;;;;;;5073540;28;20220;-69
2023/01/13 00:19:34;;;;;;;1.60;0.85;;;9.00;99.90;;;;;;5073158;28;20200;-70
2023/01/13 00:22:01;;;;;;;1.05;0.85;;;9.00;99.90;;;;;;5073368;28;20234;-69
2023/01/13 00:24:28;;;;;;;2.05;1.08;;;9.00;99.90;;;;;;5073456;28;20200;-69
2023/01/13 00:26:54;;;;;;;5.13;1.00;;;9.00;99.90;;;;;;5073210;28;20719;-70
2023/01/13 00:29:22;;;;;;;1.02;0.93;;;9.00;99.90;;;;;;5073150;28;20227;-69
2023/01/13 00:31:49;;;;;;;1.10;0.90;;;9.00;99.90;;;;;;5073157;28;20208;-70
2023/01/13 00:34:16;;;;;;;2.88;0.98;;;9.00;99.90;;;;;;5073286;28;20211;-70
2023/01/13 00:36:43;;;;;;;1.10;0.90;;;9.00;99.90;;;;;;5072997;28;20231;-70
2023/01/13 00:39:10;;;;;;;1.42;0.95;;;9.00;99.90;;;;;;5072644;28;20192;-69
2023/01/13 00:44:17;;;;;;;1.27;1.02;;;9.10;99.90;;;;;;5049751;28;20567;-70
2023/01/13 00:46:45;;;;;;;1.55;1.10;;;9.10;99.90;;;;;;5073072;28;20307;-70
2023/01/13 00:49:12;;;;;;;1.83;1.38;;;9.10;99.90;;;;;;5072416;28;20227;-70
2023/01/13 00:51:39;;;;;;;0.80;0.80;;;9.10;99.90;;;;;;5073077;28;20621;-70
2023/01/13 00:54:06;;;;;;;1.70;1.08;;;9.20;99.90;;;;;;5072897;28;20231;-70
2023/01/13 00:56:33;;;;;;;5.30;1.15;;;9.20;99.90;;;;;;5072889;28;20242;-70
2023/01/13 00:59:00;;;;;;;1.75;0.93;;;9.20;99.90;;;;;;5072753;28;20196;-70
2023/01/13 01:01:27;;;;;;;1.23;1.13;;;9.20;99.90;;;;;;5071988;28;20197;-70
2023/01/13 01:03:55;;;;;;;1.90;0.85;;;9.20;99.90;;;;;;5072992;28;20211;-70
2023/01/13 01:06:24;;;;;;;2.30;1.00;;;9.30;99.90;;;;;;5071644;28;20221;-70
2023/01/13 01:08:52;;;;;;;1.60;0.80;;;9.20;99.90;;;;;;5072205;28;20220;-70
2023/01/13 01:11:21;;;;;;;3.70;0.90;;;9.20;99.90;;;;;;5072437;28;20663;-70
2023/01/13 01:13:50;;;;;;;1.95;0.80;;;9.20;99.90;;;;;;5072463;28;20204;-70
2023/01/13 01:16:19;;;;;;;1.10;1.00;;;9.20;99.90;;;;;;5072321;28;20660;-70
2023/01/13 01:18:48;;;;;;;2.90;0.80;;;9.20;99.90;;;;;;5072030;28;20647;-70
2023/01/13 01:21:16;;;;;;;1.33;1.00;;;9.30;99.90;;;;;;5072370;28;20218;-69
2023/01/13 01:23:43;;;;;;;1.20;1.10;;;9.30;99.90;;;;;;5072085;28;20204;-69
2023/01/13 01:26:13;;;;;;;0.90;0.80;;;9.30;99.90;;;;;;5072300;28;20224;-69
2023/01/13 01:28:40;;;;;;;2.30;1.10;;;9.30;99.90;;;;;;5071384;28;20220;-70
2023/01/13 01:31:08;;;;;;;1.17;0.90;;;9.30;99.90;;;;;;5072248;28;20794;-69
2023/01/13 01:33:34;;;;;;;1.00;0.90;;;9.30;99.90;;;;;;5071689;28;20204;-69
2023/01/13 01:36:01;;;;;;;1.48;0.85;;;9.30;99.90;;;;;;5072139;28;20227;-68
2023/01/13 01:38:29;;;;;;;2.55;0.93;;;9.40;99.90;;;;;;5071640;28;20287;-69
2023/01/13 01:40:57;;;;;;;1.17;0.90;;;9.40;99.90;;;;;;5071842;28;20664;-69
2023/01/13 01:43:58;;;;;;;0.90;0.80;;;9.40;99.90;;;;;;5072077;28;20200;-69
2023/01/13 01:46:25;;;;;;;0.90;0.73;;;9.40;99.90;;;;;;5071675;28;20223;-69
2023/01/13 01:48:53;;;;;;;1.00;0.90;;;9.30;99.90;;;;;;5071133;28;20255;-70
2023/01/13 01:51:20;;;;;;;1.17;0.80;;;9.30;99.90;;;;;;5071552;28;20342;-69
2023/01/13 01:53:49;;;;;;;0.82;0.70;;;9.30;99.90;;;;;;5071748;28;20212;-69
2023/01/13 01:56:17;;;;;;;2.63;1.08;;;9.30;99.90;;;;;;5071421;28;20224;-69
2023/01/13 01:58:49;;;;;;;1.35;1.02;;;9.30;99.90;;;;;;5071012;28;20613;-69
2023/01/13 02:01:17;;;;;;;1.17;1.00;;;9.30;99.90;;;;;;5071496;28;20224;-69
2023/01/13 02:03:49;;;;;;;2.35;1.17;;;9.30;99.90;;;;;;5071210;28;20206;-69
2023/01/13 02:06:16;;;;;;;1.15;0.80;;;9.30;99.90;;;;;;5071436;28;20227;-70
2023/01/13 02:08:43;;;;;;;1.05;0.80;;;9.30;99.90;;;;;;5070520;28;20205;-71
2023/01/13 02:14:14;;;;;;;1.05;0.90;;;9.20;99.90;;;;;;5070647;28;20318;-70
2023/01/13 02:16:55;;;;;;;1.10;0.70;;;9.30;99.90;;;;;;5070975;28;20221;-69
2023/01/13 02:19:44;;;;;;;1.00;0.90;;;9.20;99.90;;;;;;5070486;28;20197;-69
2023/01/13 02:22:43;;;;;;;0.82;0.70;;;9.20;99.90;;;;;;5068666;28;20216;-70
2023/01/13 02:25:45;;;;;;;1.00;0.80;;;9.20;99.90;;;;;;5071088;28;20197;-70
2023/01/13 02:28:33;;;;;;;3.13;1.00;;;9.20;99.90;;;;;;5055154;28;20192;-70
2023/01/13 02:34:01;;;;;;;1.90;0.95;;;9.20;99.90;;;;;;5071030;28;20230;-69
2023/01/13 02:36:35;;;;;;;1.27;0.80;;;9.20;99.90;;;;;;5070679;28;20243;-69
2023/01/13 02:39:07;;;;;;;1.05;0.77;;;9.20;99.90;;;;;;5070765;28;20192;-69
2023/01/13 02:44:28;;;;;;;1.30;1.17;;;9.20;99.90;;;;;;5071085;28;20215;-68
2023/01/13 02:47:00;;;;;;;1.27;1.02;;;9.20;99.90;;;;;;5070670;28;20707;-68
2023/01/13 02:49:34;;;;;;;1.20;0.85;;;9.20;99.90;;;;;;5070351;28;20310;-68
2023/01/13 02:52:08;;;;;;;1.13;0.88;;;9.20;99.90;;;;;;5070844;28;20204;-68
2023/01/13 02:54:37;;;;;;;1.00;0.70;;;9.20;99.90;;;;;;5070827;28;20199;-68
2023/01/13 02:57:05;;;;;;;1.13;0.85;;;9.20;99.90;;;;;;5070896;28;20590;-68
2023/01/13 02:59:33;;;;;;;0.80;0.73;;;9.20;99.90;;;;;;5070265;28;20200;-69
2023/01/13 03:02:03;;;;;;;0.90;0.70;;;9.20;99.90;;;;;;5070822;28;20211;-69
2023/01/13 03:04:48;;;;;;;2.15;1.00;;;9.10;99.90;;;;;;5070558;28;20669;-68
2023/01/13 03:07:36;;;;;;;2.55;0.80;;;9.10;99.90;;;;;;5070758;28;20227;-68
2023/01/13 03:10:10;;;;;;;2.17;1.10;;;9.10;99.90;;;;;;5067606;28;20216;-68
2023/01/13 03:12:49;;;;;;;2.45;0.90;;;9.10;99.90;;;;;;5070596;28;20207;-69
2023/01/13 03:15:22;;;;;;;1.00;0.80;;;9.10;99.90;;;;;;5070587;28;20207;-69
2023/01/13 03:18:00;;;;;;;1.52;0.90;;;9.10;99.90;;;;;;5070421;28;20220;-68
2023/01/13 03:20:33;;;;;;;2.08;0.95;;;9.00;99.90;;;;;;5069913;28;20204;-69
2023/01/13 03:23:08;;;;;;;1.15;0.93;;;9.10;99.90;;;;;;5070821;28;20200;-69
2023/01/13 03:25:38;;;;;;;1.58;1.13;;;9.00;99.90;;;;;;5073883;28;20207;-69
2023/01/13 03:28:08;;;;;;;3.75;0.90;;;9.10;99.90;;;;;;5074563;28;20204;-69
2023/01/13 03:30:41;;;;;;;1.00;0.90;;;9.00;99.90;;;;;;5073968;28;20227;-68
2023/01/13 03:33:15;;;;;;;1.20;1.00;;;9.10;99.90;;;;;;5074364;28;20197;-69
2023/01/13 03:35:45;;;;;;;1.88;0.88;;;9.10;99.90;;;;;;5074256;28;20196;-69
2023/01/13 03:38:16;;;;;;;2.35;1.08;;;9.10;99.90;;;;;;5073995;28;20201;-69
2023/01/13 03:40:48;;;;;;;1.00;0.80;;;9.10;99.90;;;;;;5074311;28;20196;-69
2023/01/13 03:46:09;;;;;;;3.72;1.60;;;9.10;99.90;;;;;;5074250;28;20291;-68
2023/01/13 03:48:40;;;;;;;3.88;1.30;;;9.10;99.90;;;;;;5073542;28;20266;-68
2023/01/13 03:51:11;;;;;;;1.05;0.70;;;9.10;99.90;;;;;;5074177;28;20220;-68
2023/01/13 03:53:39;;;;;;;2.05;0.90;;;9.10;99.90;;;;;;5073866;28;20200;-68
2023/01/13 03:56:11;;;;;;;1.30;0.85;;;9.10;99.90;;;;;;5074055;28;20220;-68
2023/01/13 03:58:43;;;;;;;1.63;0.82;;;9.00;99.90;;;;;;5073583;28;20211;-68
2023/01/13 04:01:15;;;;;;;1.00;0.85;;;9.00;99.90;;;;;;5073904;28;20196;-70
2023/01/13 04:03:49;;;;;;;1.10;0.80;;;9.00;99.90;;;;;;5073715;28;20203;-70
2023/01/13 04:06:19;;;;;;;1.00;0.82;;;9.00;99.90;;;;;;5073624;28;20648;-70
2023/01/13 04:08:52;;;;;;;1.20;0.90;;;9.00;99.90;;;;;;5073238;28;20219;-70
2023/01/13 04:11:27;;;;;;;1.60;0.85;;;9.00;99.90;;;;;;5073415;28;20311;-70
2023/01/13 04:13:56;;;;;;;2.25;0.90;;;9.00;99.90;;;;;;5073649;28;20908;-70
2023/01/13 04:16:23;;;;;;;1.60;0.98;;;9.00;99.90;;;;;;5073339;28;20228;-70
2023/01/13 04:18:51;;;;;;;1.13;0.90;;;9.00;99.90;;;;;;5072962;28;20207;-70
2023/01/13 04:21:17;;;;;;;3.20;0.95;;;9.00;99.90;;;;;;5073307;28;20215;-70
2023/01/13 04:23:44;;;;;;;1.13;0.75;;;9.00;99.90;;;;;;5073327;28;20200;-70
2023/01/13 04:26:11;;;;;;;0.80;0.70;;;9.00;99.90;;;;;;5073267;28;20740;-70
2023/01/13 04:28:39;;;;;;;0.80;0.77;;;9.10;99.90;;;;;;5072664;28;20207;-71
2023/01/13 04:31:06;;;;;;;0.90;0.77;;;9.10;99.90;;;;;;5073248;28;20315;-70
2023/01/13 04:33:33;;;;;;;1.27;0.80;;;9.10;99.90;;;;;;5072995;28;20207;-70
2023/01/13 04:36:01;;;;;;;2.20;0.90;;;9.10;99.90;;;;;;5072380;28;20224;-71
2023/01/13 04:38:27;;;;;;;1.13;0.80;;;9.20;99.90;;;;;;5072546;28;20204;-71
2023/01/13 04:40:54;;;;;;;0.80;0.70;;;9.10;99.90;;;;;;5073163;28;20204;-71
2023/01/13 04:43:21;;;;;;;1.33;0.90;;;9.20;99.90;;;;;;5073350;28;20629;-70
2023/01/13 04:45:47;;;;;;;1.00;0.90;;;9.20;99.90;;;;;;5072783;28;20204;-70
2023/01/13 04:48:14;;;;;;;0.93;0.82;;;9.20;99.90;;;;;;5072852;28;20197;-70
2023/01/13 04:50:41;;;;;;;1.27;0.80;;;9.20;99.90;;;;;;5072634;28;20227;-70
2023/01/13 04:53:10;;;;;;;1.15;0.88;;;9.20;99.90;;;;;;5073161;28;20207;-68
2023/01/13 04:55:36;;;;;;;2.83;1.10;;;9.20;99.90;;;;;;5072979;28;20578;-70
2023/01/13 04:58:04;;;;;;;0.80;0.80;;;9.20;99.90;;;;;;5072934;28;20295;-70
2023/01/13 05:00:30;;;;;;;1.17;1.00;;;9.20;99.90;;;;;;5071888;28;20199;-70
2023/01/13 05:02:58;;;;;;;1.42;1.00;;;9.20;99.90;;;;;;5072646;28;20574;-70
2023/01/13 05:05:25;;;;;;;2.55;0.85;;;9.20;99.90;;;;;;5072552;28;20705;-70
2023/01/13 05:07:51;;;;;;;1.20;0.80;;;9.10;99.90;;;;;;5072190;28;20231;-71
2023/01/13 05:10:20;;;;;;;0.82;0.70;;;9.10;99.90;;;;;;5072075;28;20597;-70
2023/01/13 05:18:16;;;;;;;1.08;0.80;;;9.20;99.90;;;;;;5071941;28;20334;-70
2023/01/13 05:20:43;;;;;;;0.90;0.70;;;9.20;99.90;;;;;;5071950;28;20208;-70
2023/01/13 05:25:55;;;;;;;0.82;0.70;;;9.20;99.90;;;;;;5072208;28;20728;-70
2023/01/13 05:28:22;;;;;;;1.45;1.10;;;9.20;99.90;;;;;;5071504;28;20675;-69
2023/01/13 05:30:49;;;;;;;0.80;0.70;;;9.20;99.90;;;;;;5072145;28;20220;-70
2023/01/13 05:33:19;;;;;;;1.20;1.10;;;9.20;99.90;;;;;;5072514;28;20211;-70
2023/01/13 05:35:46;;;;;;;1.00;0.80;;;9.10;99.90;;;;;;5071767;28;20205;-70
2023/01/13 05:38:14;;;;;;;0.98;0.80;;;9.10;99.90;;;;;;5071660;28;20207;-70
2023/01/13 05:43:27;;;;;;;2.17;0.75;;;9.10;99.90;;;;;;5071785;28;20211;-69
2023/01/13 05:45:57;;;;;;;0.80;0.70;;;9.20;99.90;;;;;;5071521;28;20208;-70
2023/01/13 05:48:26;;;;;;;1.02;0.80;;;9.10;99.90;;;;;;5071016;28;20203;-70
2023/01/13 05:50:53;;;;;;;1.20;1.10;;;9.10;99.90;;;;;;5071126;28;20216;-69
2023/01/13 05:53:21;;;;;;;0.70;0.60;;;9.10;99.90;;;;;;5071632;28;20204;-68
2023/01/13 05:55:48;;;;;;;0.90;0.73;;;9.10;99.90;;;;;;5071060;28;20582;-69
2023/01/13 05:58:17;;;;;;;0.90;0.70;;;9.10;99.90;;;;;;5071144;28;20582;-70
2023/01/13 06:00:45;;;;;;;0.90;0.70;;;9.10;99.90;;;;;;5071283;28;20203;-69
2023/01/13 06:03:12;;;;;;;0.82;0.73;;;9.10;99.90;;;;;;5071157;28;20201;-69
2023/01/13 06:05:40;;;;;;;2.45;1.10;;;9.20;99.90;;;;;;5071001;28;20664;-69
2023/01/13 06:08:07;;;;;;;1.25;0.80;;;9.10;99.90;;;;;;5071158;28;20196;-69
2023/01/13 06:10:35;;;;;;;1.00;0.70;;;9.10;99.90;;;;;;5070965;28;20633;-69
2023/01/13 06:13:02;;;;;;;1.25;0.73;;;9.10;99.90;;;;;;5071125;28;20208;-69
2023/01/13 06:15:29;;;;;;;1.35;0.85;;;9.20;99.90;;;;;;5071008;28;20204;-70
2023/01/13 06:17:57;;;;;;;0.80;0.70;;;9.20;99.90;;;;;;5070778;28;20224;-69
2023/01/13 06:20:24;;;;;;;0.80;0.70;;;9.20;99.90;;;;;;5070514;28;20204;-69
2023/01/13 06:22:53;;;;;;;0.80;0.70;;;9.20;99.90;;;;;;5070917;28;20204;-69
2023/01/13 06:25:25;;;;;;;1.48;0.98;;;9.20;99.90;;;;;;5071133;28;20196;-69
2023/01/13 06:27:54;;;;;;;0.95;0.85;;;9.20;99.90;;;;;;5070803;28;20286;-69
2023/01/13 06:30:21;;;;;;;3.70;0.90;;;9.30;99.90;;;;;;5070286;28;20219;-69
2023/01/13 06:32:52;;;;;;;0.80;0.70;;;9.30;99.90;;;;;;5070722;28;20204;-69
2023/01/13 06:35:25;;;;;;;0.80;0.70;;;9.20;99.90;;;;;;5070785;28;20200;-68
2023/01/13 06:37:56;;;;;;;0.85;0.77;;;9.20;99.90;;;;;;5070729;28;20227;-69
2023/01/13 06:40:24;;;;;;;0.90;0.70;;;9.20;99.90;;;;;;5070300;28;20203;-69
2023/01/13 06:45:38;;;;;;;1.65;0.75;;;9.30;99.90;;;;;;5087729;28;20241;-70
2023/01/13 06:48:06;;;;;;;0.98;0.70;;;9.20;99.90;;;;;;5090925;28;20200;-70
2023/01/13 06:50:34;;;;;;;1.60;0.90;;;9.20;99.90;;;;;;5090157;28;20701;-70
2023/01/13 06:53:00;;;;;;;0.70;0.60;;;9.20;99.90;;;;;;5090780;28;20749;-70
2023/01/13 06:55:27;;;;;;;0.80;0.70;;;9.20;99.90;;;;;;5090912;28;20200;-70
2023/01/13 06:57:55;;;;;;;0.80;0.70;;;9.20;99.90;;;;;;5090414;28;20224;-69
2023/01/13 07:00:24;;;;;;;1.55;0.85;;;9.10;99.90;;;;;;5090026;28;20573;-70
2023/01/13 07:02:51;;;;;;;0.90;0.70;;;9.10;99.90;;;;;;5090252;28;20200;-70
2023/01/13 07:05:18;;;;;;;0.90;0.70;;;9.10;99.90;;;;;;5090765;28;20662;-70
2023/01/13 07:07:46;;;;;;;0.80;0.70;;;9.10;99.90;;;;;;5090271;28;20239;-70
2023/01/13 07:10:20;;;;;;;1.60;0.70;;;9.10;99.90;;;;;;5090281;28;20196;-70
2023/01/13 07:15:33;;;;;;;0.90;0.70;;;9.10;99.90;;;;;;5091051;28;20677;-70
2023/01/13 07:18:00;;;;;;;0.70;0.60;;;9.20;99.90;;;;;;5090481;28;20196;-70
2023/01/13 07:20:27;;;;;;;0.98;0.70;;;9.20;99.90;;;;;;5090395;28;20238;-70
2023/01/13 07:22:56;;;;;;;0.88;0.70;;;9.20;99.90;;;;;;5075269;28;20196;-69
2023/01/13 07:25:23;;;;;;;1.55;0.93;;;9.20;99.90;;;;;;5069835;28;20686;-69
2023/01/13 07:27:51;;;;;;;1.20;0.65;;;9.20;99.90;;;;;;5069968;28;20238;-69
2023/01/13 07:30:18;;;;;;;0.80;0.70;;;9.20;99.90;;;;;;5069506;28;20852;-70
2023/01/13 07:32:45;;;;;;;0.80;0.70;;;9.20;99.90;;;;;;5070303;28;20568;-70
2023/01/13 07:35:12;;;;;;;0.90;0.68;;;9.20;99.90;;;;;;5069995;28;20208;-70
2023/01/13 07:37:39;;;;;;;0.95;0.80;;;9.20;99.90;;;;;;5070137;28;20747;-69
2023/01/13 07:40:09;;;;;;;1.00;0.70;;;9.20;99.90;;;;;;5069273;28;20202;-70
2023/01/13 07:45:23;;;;;;;0.90;0.70;;;9.20;99.90;;;;;;5070162;28;20303;-69
2023/01/13 07:47:52;;;;;;;1.23;0.70;;;9.20;99.90;;;;;;5069811;28;20243;-69
2023/01/13 07:50:19;;;;;;;0.80;0.70;;;9.20;99.90;;;;;;5069296;28;20232;-69
2023/01/13 07:52:46;;;;;;;1.20;0.80;;;9.30;99.90;;;;;;5069768;28;20211;-70
2023/01/13 07:55:14;;;;;;;0.80;0.70;;;9.30;99.90;;;;;;5069925;28;20203;-69
2023/01/13 07:57:41;;;;;;;0.93;0.70;;;9.30;99.90;;;;;;5069619;28;20232;-70
2023/01/13 08:00:09;;;;;;;1.00;0.82;;;9.30;99.90;;;;;;5069379;28;20204;-69
2023/01/13 08:02:36;;;;;;;0.70;0.60;;;9.40;99.90;;;;;;5069542;28;20204;-69
2023/01/13 08:05:03;;;;;;;1.23;0.88;;;9.30;99.90;;;;;;5069984;28;20230;-69
2023/01/13 08:07:29;;;;;;;0.80;0.70;;;9.40;99.90;;;;;;5069552;28;20590;-69
2023/01/13 08:09:56;;;;;;;0.80;0.70;;;9.40;99.90;;;;;;5069112;28;20211;-69
2023/01/13 08:15:09;;;;;;;0.80;0.70;;;9.50;99.90;;;;;;5073514;28;20207;-69
2023/01/13 08:17:36;;;;;;;0.80;0.77;;;9.60;99.90;;;;;;5073448;28;20231;-69
2023/01/13 08:20:04;;;;;;;1.08;0.70;;;9.70;99.90;;;;;;5072848;28;20204;-69
2023/01/13 08:22:32;;;;;;;0.70;0.60;;;9.70;99.90;;;;;;5073179;28;20200;-70
2023/01/13 08:24:58;;;;;;;0.80;0.70;;;9.70;99.90;;;;;;5073024;28;20200;-69
2023/01/13 08:27:26;;;;;;;0.80;0.70;;;9.70;99.90;;;;;;5073132;28;20224;-69
2023/01/13 08:29:53;;;;;;;0.80;0.80;;;9.70;99.90;;;;;;5072227;28;20231;-70
2023/01/13 08:32:20;;;;;;;0.95;0.80;;;9.60;99.90;;;;;;5073048;28;20220;-69
2023/01/13 08:34:46;;;;;;;1.92;0.80;;;9.60;99.90;;;;;;5072896;28;20200;-70
2023/01/13 08:37:13;;;;;;;0.90;0.80;;;9.50;99.90;;;;;;5066510;28;20227;-69
2023/01/13 08:39:40;;;;;;;1.45;0.82;;;9.40;99.90;;;;;;5071084;28;20196;-70
2023/01/13 08:42:08;;;;;;;0.88;0.80;;;9.30;99.90;;;;;;5072556;28;20211;-70
2023/01/13 08:44:37;;;;;;;1.20;0.90;;;9.30;99.90;;;;;;5072353;28;20239;-69
2023/01/13 08:47:04;;;;;;;0.80;0.70;;;9.20;99.90;;;;;;5071715;28;20224;-69
2023/01/13 08:49:31;;;;;;;0.70;0.60;;;9.20;99.90;;;;;;5072041;28;20291;-69
2023/01/13 08:51:58;;;;;;;1.00;0.88;;;9.10;99.90;;;;;;5071866;28;20220;-69
2023/01/13 08:54:25;;;;;;;1.70;0.80;;;9.10;99.90;;;;;;5072639;28;20611;-69
2023/01/13 08:56:52;;;;;;;0.90;0.80;;;9.00;99.90;;;;;;5072140;28;20232;-69
2023/01/13 08:59:20;;;;;;;0.70;0.60;;;9.10;99.90;;;;;;5071010;28;20207;-69
2023/01/13 09:01:48;;;;;;;0.80;0.70;;;9.10;99.90;;;;;;5072177;28;20199;-70
2023/01/13 09:04:19;;;;;;;1.00;0.90;;;9.10;99.90;;;;;;5071978;28;20561;-69
2023/01/13 09:06:47;;;;;;;0.70;0.70;;;9.20;99.90;;;;;;5071822;28;20667;-69
2023/01/13 09:09:14;;;;;;;1.27;0.77;;;9.10;99.90;;;;;;5071302;28;20196;-69
2023/01/13 09:14:30;;;;;;;0.70;0.60;;;9.00;99.90;;;;;;5071758;28;20196;-69
2023/01/13 09:16:58;;;;;;;0.90;0.75;;;9.00;99.90;;;;;;5071892;28;20227;-69
2023/01/13 09:19:25;;;;;;;0.80;0.70;;;8.90;99.90;;;;;;5072000;28;20204;-69
2023/01/13 09:21:52;;;;;;;0.80;0.70;;;8.90;99.90;;;;;;5070464;28;20240;-70
2023/01/13 09:24:19;;;;;;;0.70;0.60;;;8.80;99.90;;;;;;5069635;28;20204;-69
2023/01/13 09:26:46;;;;;;;2.72;0.70;;;8.80;99.90;;;;;;5069372;28;20224;-69
2023/01/13 09:29:12;;;;;;;0.80;0.70;;;8.70;99.90;;;;;;5070644;28;20204;-70
2023/01/13 09:31:39;;;;;;;0.80;0.70;;;8.80;99.90;;;;;;5070826;28;20242;-70
2023/01/13 09:36:54;;;;;;;0.70;0.60;;;8.80;99.90;;;;;;5071086;28;20231;-70
2023/01/13 09:39:21;;;;;;;1.10;0.80;;;8.90;99.90;;;;;;5070496;28;20204;-70
2023/01/13 09:44:45;;;;;;;1.30;0.75;;;9.10;99.90;;;;;;5070869;28;20238;-70
2023/01/13 09:47:21;;;;;;;1.45;0.90;;;9.10;99.90;;;;;;5070795;28;20220;-70
2023/01/13 09:49:49;;;;;;;1.10;0.70;;;9.20;99.90;;;;;;5069920;28;20195;-70
2023/01/13 09:52:19;;;;;;;1.17;0.60;;;9.10;99.90;;;;;;5070835;28;20224;-70
2023/01/13 09:54:51;;;;;;;0.80;0.70;;;9.10;99.90;;;;;;5070459;28;20200;-70
2023/01/13 09:57:20;;;;;;;0.80;0.70;;;9.00;99.90;;;;;;5070664;28;20227;-70
2023/01/13 09:59:47;;;;;;;0.80;0.70;;;8.90;99.90;;;;;;5070009;28;20208;-70
2023/01/13 10:02:34;;;;;;;1.00;0.70;;;8.80;99.90;;;;;;5070617;28;20219;-70
2023/01/13 10:05:12;;;;;;;0.80;0.70;;;8.80;99.90;;;;;;5070746;28;20204;-70
2023/01/13 10:07:49;;;;;;;0.90;0.70;;;8.80;99.90;;;;;;5070254;28;20216;-70
2023/01/13 10:10:21;;;;;;;0.80;0.70;;;8.80;99.90;;;;;;5070391;28;20204;-70
2023/01/13 10:15:34;;;;;;;0.80;0.70;;;8.70;99.90;;;;;;5070805;28;20204;-70
2023/01/13 10:18:09;;;;;;;0.95;0.70;;;8.70;99.90;;;;;;5070254;28;20208;-70
2023/01/13 10:20:48;;;;;;;0.70;0.70;;;8.70;99.90;;;;;;5069664;28;20207;-70
2023/01/13 10:23:36;;;;;;;1.00;0.70;;;8.70;99.90;;;;;;5070210;28;20192;-70
2023/01/13 10:26:10;;;;;;;0.80;0.70;;;8.70;99.90;;;;;;5070542;28;20226;-70
2023/01/13 10:28:37;;;;;;;2.65;1.00;;;9.30;99.90;;;;;;5069722;28;20208;-70
2023/01/13 10:31:12;;;;;;;1.10;0.80;;;11.40;99.90;;;;;;5070182;28;20239;-70
2023/01/13 10:33:38;;;;;;;1.30;0.80;;;14.40;99.90;;;;;;5069619;28;20575;-70
2023/01/13 10:36:14;;;;;;;0.90;0.70;;;16.70;99.90;;;;;;5069490;28;20220;-70
2023/01/13 10:38:43;;;;;;;1.00;0.70;;;18.90;99.90;;;;;;5069604;28;20462;-70
2023/01/13 10:41:19;;;;;;;0.90;0.80;;;19.30;99.90;;;;;;5070213;28;20533;-70
2023/01/13 10:43:58;;;;;;;1.73;0.80;;;17.80;99.90;;;;;;5070110;28;20461;-70
2023/01/13 10:46:25;;;;;;;1.00;0.70;;;16.30;99.90;;;;;;5070333;28;20489;-70
2023/01/13 10:48:54;;;;;;;0.90;0.70;;;14.70;99.90;;;;;;5068859;28;20685;-70
2023/01/13 10:51:25;;;;;;;2.22;0.95;;;13.00;99.90;;;;;;5070109;28;20254;-70
2023/01/13 10:53:55;;;;;;;1.35;0.70;;;11.80;99.90;;;;;;5069809;28;20201;-70
2023/01/13 10:56:24;;;;;;;0.90;0.80;;;10.90;99.90;;;;;;5069874;28;20220;-70
2023/01/13 10:58:51;;;;;;;1.33;0.85;;;10.20;99.90;;;;;;5069337;28;20214;-70
2023/01/13 11:01:24;;;;;;;0.93;0.70;;;9.70;99.90;;;;;;5069595;28;20619;-70
2023/01/13 11:03:52;;;;;;;0.80;0.70;;;9.30;99.90;;;;;;5069292;28;20781;-70
2023/01/13 11:06:21;;;;;;;0.88;0.77;;;9.10;99.90;;;;;;5069551;28;20228;-70
2023/01/13 11:08:54;;;;;;;1.00;0.73;;;8.80;99.90;;;;;;5069186;28;20203;-70
2023/01/13 11:11:38;;;;;;;0.93;0.82;;;8.70;99.90;;;;;;5069246;28;20203;-70
2023/01/13 11:17:01;;;;;;;0.90;0.75;;;8.40;99.90;;;;;;5069563;28;20251;-70
2023/01/13 11:19:31;;;;;;;0.70;0.60;;;8.30;99.90;;;;;;5069135;28;20196;-70
2023/01/13 11:22:05;;;;;;;5.40;1.10;;;8.20;99.90;;;;;;5069152;28;20218;-70
2023/01/13 11:24:40;;;;;;;1.10;0.90;;;8.20;99.90;;;;;;5069430;28;20207;-70
2023/01/13 11:27:15;;;;;;;1.05;0.75;;;8.20;99.90;;;;;;5068716;28;20272;-70
2023/01/13 11:29:58;;;;;;;0.75;0.68;;;8.10;99.90;;;;;;5069599;28;20204;-70
2023/01/13 11:32:25;;;;;;;0.82;0.77;;;8.00;99.90;;;;;;5059729;28;20248;-70
2023/01/13 11:34:56;;;;;;;0.80;0.70;;;7.90;99.90;;;;;;5049620;28;20211;-70
2023/01/13 11:37:26;;;;;;;1.10;0.60;;;7.90;99.90;;;;;;5049509;28;20229;-70
2023/01/13 11:40:04;;;;;;;2.28;0.80;;;7.80;99.90;;;;;;5049269;28;20228;-70
2023/01/13 11:42:41;;;;;;;1.27;0.90;;;7.60;99.90;;;;;;5049899;28;20623;-70
2023/01/13 11:45:16;;;;;;;1.10;0.90;;;7.50;99.90;;;;;;5051100;28;20575;-70
2023/01/13 11:47:45;;;;;;;1.00;0.80;;;7.50;99.90;;;;;;5053738;28;20227;-70
2023/01/13 11:50:18;;;;;;;1.33;1.02;;;7.50;99.90;;;;;;5052274;28;20208;-70
2023/01/13 11:53:06;;;;;;;1.33;0.90;;;7.50;99.90;;;;;;5053296;28;20596;-70
2023/01/13 11:55:44;;;;;;;1.05;0.90;;;7.50;99.90;;;;;;5053483;28;20258;-70
2023/01/13 11:58:45;;;;;;;0.80;0.77;;;7.60;99.90;;;;;;5053098;28;20201;-70
2023/01/13 12:01:26;;;;;;;1.35;0.90;;;7.60;99.90;;;;;;5045982;28;20237;-70
2023/01/13 12:04:03;;;;;;;0.80;0.70;;;7.80;99.90;;;;;;5053016;28;20212;-70
2023/01/13 12:06:36;;;;;;;1.10;0.77;;;8.00;99.90;;;;;;5053342;28;20315;-70
2023/01/13 12:09:20;;;;;;;0.80;0.80;;;8.10;99.90;;;;;;5053298;28;20309;-70
2023/01/13 12:14:56;;;;;;;0.90;0.70;;;8.90;99.90;;;;;;5052876;28;20203;-70
2023/01/13 12:17:32;;;;;;;2.65;1.35;;;8.90;99.90;;;;;;5053447;28;20662;-70
2023/01/13 12:20:12;;;;;;;1.30;0.73;;;8.80;99.90;;;;;;5052519;28;20612;-70
2023/01/13 12:22:39;;;;;;;1.90;0.95;;;9.40;99.90;;;;;;5053016;28;20675;-70
2023/01/13 12:25:17;;;;;;;1.35;0.70;;;9.90;99.90;;;;;;5052384;28;20201;-70
2023/01/13 12:27:51;;;;;;;0.95;0.85;;;10.50;99.90;;;;;;5053221;28;20225;-70
2023/01/13 12:30:25;;;;;;;1.48;0.80;;;10.60;99.90;;;;;;5052772;28;20211;-70
2023/01/13 12:32:56;;;;;;;3.05;1.13;;;11.00;99.90;;;;;;5052456;28;20220;-70
2023/01/13 12:35:37;;;;;;;1.17;0.70;;;11.70;99.90;;;;;;5052780;28;20209;-70
2023/01/13 12:38:10;;;;;;;0.80;0.80;;;12.10;99.90;;;;;;5052798;28;20268;-70
2023/01/13 12:40:46;;;;;;;1.77;0.90;;;12.10;99.90;;;;;;5052640;28;20690;-70
2023/01/13 12:46:33;;;;;;;2.15;1.23;;;12.10;99.90;;;;;;5052800;28;20288;-70
2023/01/13 12:49:17;;;;;;;0.90;0.80;;;11.80;99.90;;;;;;5051827;28;20208;-70
2023/01/13 12:52:23;;;;;;;2.75;1.00;;;11.50;99.90;;;;;;5052373;28;20207;-70
2023/01/13 12:55:13;;;;;;;2.95;1.15;;;11.20;99.90;;;;;;5052323;28;20196;-70
2023/01/13 12:57:54;;;;;;;2.75;1.35;;;11.20;99.90;;;;;;5064187;28;20219;-69
2023/01/13 13:00:23;;;;;;;2.85;1.00;;;11.20;99.90;;;;;;5070145;28;20601;-70
2023/01/13 13:03:21;;;;;;;4.00;1.45;;;11.30;99.90;;;;;;5072172;28;20227;-70
2023/01/13 13:05:55;;;;;;;1.50;1.08;;;11.50;99.90;;;;;;5071883;28;20687;-69
2023/01/13 13:08:29;;;;;;;1.90;1.20;;;11.80;99.90;;;;;;5071795;28;20196;-70
2023/01/13 13:13:16;;;;;;;2.45;1.17;;;11.90;99.90;;;;;;5072346;28;20204;-70
2023/01/13 13:14:03;;;;;;;1.98;1.27;;;11.80;99.90;;;;;;5072021;28;20220;-70
2023/01/13 13:16:49;;;;;;;3.67;1.40;;;11.80;99.90;;;;;;5072305;28;20662;-68
2023/01/13 13:19:41;;;;;;;1.20;0.93;;;11.90;99.90;;;;;;5071742;28;20200;-69
2023/01/13 13:22:44;;;;;;;3.88;1.40;;;12.00;99.90;;;;;;5072060;28;20208;-69
2023/01/13 13:25:23;;;;;;;1.70;1.00;;;12.40;99.90;;;;;;5071682;28;20192;-70
2023/01/13 13:28:00;;;;;;;2.65;1.10;;;12.80;99.90;;;;;;5069326;28;20216;-70
2023/01/13 13:30:30;;;;;;;1.10;0.80;;;13.10;99.90;;;;;;5071300;28;20200;-71
2023/01/13 13:33:08;;;;;;;2.50;1.00;;;13.40;99.90;;;;;;5071692;28;20220;-71
2023/01/13 13:35:50;;;;;;;5.00;1.33;;;13.90;99.90;;;;;;5071416;28;20211;-69
2023/01/13 13:47:02;;;;;;;2.45;1.23;;;13.40;99.90;;;;;;5070781;28;20234;-69
2023/01/13 13:49:40;;;;;;;1.00;0.80;;;12.50;99.90;;;;;;5071062;28;20220;-70
2023/01/13 13:52:14;;;;;;;1.65;1.10;;;12.00;99.90;;;;;;5071369;28;20299;-69
2023/01/13 13:54:43;;;;;;;3.10;1.27;;;11.70;99.90;;;;;;5070144;28;20192;-69
2023/01/13 13:57:16;;;;;;;4.07;1.15;;;11.40;99.90;;;;;;5049874;28;20233;-69
2023/01/13 13:59:43;;;;;;;1.65;1.20;;;11.30;99.90;;;;;;5050291;28;20197;-70
2023/01/13 14:02:18;;;;;;;3.90;1.25;;;11.00;99.90;;;;;;5050993;28;20197;-70
2023/01/13 14:04:46;;;;;;;3.95;0.98;;;10.70;99.90;;;;;;5049080;28;20200;-70
2023/01/13 14:07:19;;;;;;;3.83;1.38;;;10.40;99.90;;;;;;5050634;28;20596;-70
2023/01/13 14:09:48;;;;;;;1.90;1.20;;;10.20;99.90;;;;;;5049972;28;20204;-70
2023/01/13 14:12:18;;;;;;;1.80;1.02;;;9.90;99.90;;;;;;5050764;28;20205;-69
2023/01/13 14:14:46;;;;;;;1.45;0.90;;;9.50;99.90;;;;;;5050707;28;20225;-70
2023/01/13 14:17:19;;;;;;;3.17;0.95;;;9.20;99.90;;;;;;5050600;28;20227;-70
2023/01/13 14:19:52;;;;;;;3.05;1.00;;;9.00;99.90;;;;;;5050048;28;20209;-70
2023/01/13 14:22:19;;;;;;;2.40;1.40;;;8.70;99.90;;;;;;5050316;28;20212;-70